Time;durP1;ratioP1;P1;durP2;ratioP2;P2;SDS_P1;SDS_P2;PMS_P1;PMS_P2;Temp;Humidity;BMP_temperature;BMP_pressure;BME280_temperature;BME280_humidity;BME280_pressure;Samples;Min_cycle;Max_cycle;Signal;HPM_P1;HPM_P2
2023/09/30 00:00:58;;;;;;;;;;;14.30;99.90;;;;;;12560279;28;19931;-34
2023/09/30 00:07:10;;;;;;;;;;;14.20;99.90;;;;;;12569203;28;19929;-34
2023/09/30 00:13:29;;;;;;;;;;;14.10;99.90;;;;;;12571889;28;20292;-35
2023/09/30 00:19:44;;;;;;;;;;;14.10;99.90;;;;;;12571505;28;20007;-34
2023/09/30 00:26:02;;;;;;;;;;;14.00;99.90;;;;;;12569910;28;19938;-34
2023/09/30 00:32:18;;;;;;;;;;;14.00;99.90;;;;;;12564921;28;19929;-35
2023/09/30 00:38:29;;;;;;;;;;;14.00;99.90;;;;;;12564739;28;19924;-33
2023/09/30 00:44:47;;;;;;;;;;;13.80;99.90;;;;;;12567912;28;19932;-34
2023/09/30 00:50:59;;;;;;;;;;;13.90;99.90;;;;;;12562898;28;19929;-33
2023/09/30 00:57:21;;;;;;;;;;;13.90;99.90;;;;;;12565946;28;19963;-34
2023/09/30 01:03:41;;;;;;;;;;;13.80;99.90;;;;;;12506995;28;20393;-34
2023/09/30 01:09:53;;;;;;;;;;;13.70;99.90;;;;;;12507782;28;20015;-34
2023/09/30 01:16:15;;;;;;;;;;;13.70;99.90;;;;;;12506258;28;20510;-34
2023/09/30 01:22:30;;;;;;;;;;;13.50;99.90;;;;;;12512927;28;20325;-34
2023/09/30 01:28:43;;;;;;;;;;;13.60;99.90;;;;;;12504006;28;20035;-34
2023/09/30 01:35:00;;;;;;;;;;;13.50;99.90;;;;;;12505115;28;20028;-34
2023/09/30 01:41:12;;;;;;;;;;;13.70;99.90;;;;;;12489400;28;19932;-34
2023/09/30 01:47:29;;;;;;;;;;;13.50;99.90;;;;;;12507775;28;19929;-34
2023/09/30 01:53:42;;;;;;;;;;;13.50;99.90;;;;;;12496870;28;19933;-34
2023/09/30 01:59:53;;;;;;;;;;;13.60;99.90;;;;;;12500194;28;19929;-34
2023/09/30 02:06:04;;;;;;;;;;;13.60;99.90;;;;;;12539586;28;20180;-34
2023/09/30 02:12:17;;;;;;;;;;;13.50;99.90;;;;;;12601814;28;20003;-34
2023/09/30 02:18:32;;;;;;;;;;;13.50;99.90;;;;;;12602453;28;19932;-34
2023/09/30 02:24:46;;;;;;;;;;;13.50;99.90;;;;;;12608305;28;19932;-34
2023/09/30 02:30:57;;;;;;;;;;;13.50;99.90;;;;;;12607852;28;20550;-34
2023/09/30 02:37:10;;;;;;;;;;;13.60;99.90;;;;;;12623571;28;19972;-34
2023/09/30 02:43:32;;;;;;;;;;;13.60;99.90;;;;;;12626722;28;20372;-34
2023/09/30 02:49:58;;;;;;;;;;;13.50;99.90;;;;;;12633371;28;19974;-34
2023/09/30 02:56:46;;;;;;;;;;;13.60;99.90;;;;;;12627871;28;19935;-33
2023/09/30 03:03:06;;;;;;;;;;;13.60;99.90;;;;;;12599812;28;19985;-34
2023/09/30 03:09:32;;;;;;;;;;;13.60;99.90;;;;;;12628804;28;20398;-34
2023/09/30 03:16:07;;;;;;;;;;;13.80;99.90;;;;;;12628961;28;19975;-34
2023/09/30 03:22:35;;;;;;;;;;;13.80;99.90;;;;;;12621549;28;19965;-34
2023/09/30 03:28:59;;;;;;;;;;;13.80;99.90;;;;;;12622456;28;19924;-34
2023/09/30 03:35:32;;;;;;;;;;;13.60;99.90;;;;;;12621436;28;19924;-34
2023/09/30 03:42:13;;;;;;;;;;;13.50;99.90;;;;;;12615106;28;19925;-34
2023/09/30 03:48:39;;;;;;;;;;;13.60;99.90;;;;;;12624991;28;19932;-34
2023/09/30 03:54:53;;;;;;;;;;;13.60;99.90;;;;;;12599078;28;19924;-33
2023/09/30 04:01:07;;;;;;;;;;;13.60;99.90;;;;;;12603723;28;19976;-33
2023/09/30 04:07:27;;;;;;;;;;;13.60;99.90;;;;;;12615275;28;20352;-34
2023/09/30 04:13:41;;;;;;;;;;;13.40;99.90;;;;;;12604383;28;19932;-34
2023/09/30 04:19:52;;;;;;;;;;;13.50;99.90;;;;;;12618406;28;19937;-34
2023/09/30 04:26:08;;;;;;;;;;;13.60;99.90;;;;;;12616035;28;19967;-34
2023/09/30 04:32:27;;;;;;;;;;;13.60;99.90;;;;;;12610381;28;20261;-34
2023/09/30 04:38:43;;;;;;;;;;;13.50;99.90;;;;;;12599303;28;19928;-34
2023/09/30 04:44:57;;;;;;;;;;;13.60;99.90;;;;;;12614842;28;19928;-34
2023/09/30 04:51:16;;;;;;;;;;;13.60;99.90;;;;;;12624575;28;19927;-34
2023/09/30 04:57:36;;;;;;;;;;;13.60;99.90;;;;;;12616267;28;19967;-34
2023/09/30 05:04:04;;;;;;;;;;;13.50;99.90;;;;;;12606301;28;19974;-34
2023/09/30 05:10:29;;;;;;;;;;;13.50;99.90;;;;;;12602662;28;19931;-34
2023/09/30 05:17:11;;;;;;;;;;;13.40;99.90;;;;;;12611897;28;19924;-34
2023/09/30 05:23:41;;;;;;;;;;;13.30;99.90;;;;;;12608271;28;20038;-33
2023/09/30 05:30:11;;;;;;;;;;;13.40;99.90;;;;;;12617988;28;19928;-34
2023/09/30 05:36:34;;;;;;;;;;;13.40;99.90;;;;;;12611205;28;20696;-34
2023/09/30 05:42:50;;;;;;;;;;;13.40;99.90;;;;;;12615761;28;20422;-33
2023/09/30 05:49:13;;;;;;;;;;;13.40;99.90;;;;;;12609351;28;19977;-33
2023/09/30 05:55:31;;;;;;;;;;;13.50;99.90;;;;;;12613776;28;20022;-34
2023/09/30 06:01:43;;;;;;;;;;;13.50;99.90;;;;;;12609904;28;19931;-34
2023/09/30 06:07:57;;;;;;;;;;;13.60;99.90;;;;;;12615780;28;19934;-34
2023/09/30 06:14:06;;;;;;;;;;;13.60;99.90;;;;;;12612185;28;19927;-34
2023/09/30 06:20:22;;;;;;;;;;;13.70;99.90;;;;;;12612574;28;19932;-34
2023/09/30 06:26:42;;;;;;;;;;;13.60;99.90;;;;;;12616852;28;20292;-34
2023/09/30 06:33:00;;;;;;;;;;;13.60;99.90;;;;;;12611176;28;20217;-34
2023/09/30 06:39:20;;;;;;;;;;;13.70;99.90;;;;;;12593326;28;20048;-34
2023/09/30 06:45:42;;;;;;;;;;;13.70;99.90;;;;;;12603260;28;19924;-34
2023/09/30 06:52:02;;;;;;;;;;;13.60;99.90;;;;;;12601969;28;20003;-34
2023/09/30 06:58:20;;;;;;;;;;;13.60;99.90;;;;;;12608772;28;19928;-34
2023/09/30 07:04:33;;;;;;;;;;;13.70;99.90;;;;;;12607939;28;19928;-34
2023/09/30 07:10:52;;;;;;;;;;;13.80;99.90;;;;;;12607522;28;20175;-35
2023/09/30 07:17:08;;;;;;;;;;;14.00;99.90;;;;;;12610781;28;19928;-34
2023/09/30 07:23:25;;;;;;;;;;;14.10;99.90;;;;;;12610098;28;19971;-34
2023/09/30 07:29:40;;;;;;;;;;;14.40;99.90;;;;;;12620405;28;19928;-34
2023/09/30 07:35:57;;;;;;;;;;;14.50;99.90;;;;;;12618139;28;19932;-34
2023/09/30 07:42:11;;;;;;;;;;;14.80;99.90;;;;;;12620116;28;20020;-35
2023/09/30 07:48:26;;;;;;;;;;;15.10;99.90;;;;;;12613951;28;19931;-34
2023/09/30 07:54:38;;;;;;;;;;;15.20;99.90;;;;;;12603031;28;20300;-34
2023/09/30 08:00:53;;;;;;;;;;;15.40;99.90;;;;;;12617905;28;20399;-34
2023/09/30 08:07:04;;;;;;;;;;;15.80;99.90;;;;;;12598678;28;19929;-35
2023/09/30 08:13:15;;;;;;;;;;;15.90;99.90;;;;;;12617949;28;19977;-35
2023/09/30 08:19:28;;;;;;;;;;;16.10;99.90;;;;;;12616280;28;19932;-35
2023/09/30 08:25:40;;;;;;;;;;;15.90;99.90;;;;;;12601786;28;19924;-34
2023/09/30 08:31:50;;;;;;;;;;;15.90;99.90;;;;;;12619007;28;19981;-35
2023/09/30 08:38:03;;;;;;;;;;;15.90;99.90;;;;;;12619791;28;19923;-34
2023/09/30 08:44:12;;;;;;;;;;;16.20;99.90;;;;;;12623830;28;19977;-34
2023/09/30 08:50:23;;;;;;;;;;;16.20;99.90;;;;;;12608081;28;19932;-35
2023/09/30 08:56:33;;;;;;;;;;;16.60;99.90;;;;;;12615493;28;19932;-35
2023/09/30 09:02:40;;;;;;;;;;;16.70;99.90;;;;;;12589723;28;19968;-35
2023/09/30 09:08:48;;;;;;;;;;;16.90;99.90;;;;;;12556233;28;19928;-35
2023/09/30 09:14:57;;;;;;;;;;;17.10;99.90;;;;;;12552296;28;19997;-35
2023/09/30 09:21:15;;;;;;;;;;;16.90;99.90;;;;;;12573045;28;19925;-35
2023/09/30 09:27:37;;;;;;;;;;;16.70;99.90;;;;;;12544548;28;20310;-34
2023/09/30 09:33:44;;;;;;;;;;;16.60;99.90;;;;;;12559840;28;20011;-35
2023/09/30 09:39:58;;;;;;;;;;;16.80;99.90;;;;;;12566531;28;19929;-35
2023/09/30 09:46:08;;;;;;;;;;;17.10;99.90;;;;;;12555963;28;19979;-35
2023/09/30 09:52:15;;;;;;;;;;;17.70;99.90;;;;;;12576060;28;19960;-35
2023/09/30 09:58:20;;;;;;;;;;;17.90;99.90;;;;;;12570993;28;19931;-34
2023/09/30 10:04:27;;;;;;;;;;;17.20;99.90;;;;;;12576553;28;19932;-35
2023/09/30 10:10:45;;;;;;;;;;;17.00;99.90;;;;;;12565076;28;20463;-35
2023/09/30 10:16:56;;;;;;;;;;;17.10;99.90;;;;;;12571071;28;19928;-35
2023/09/30 10:23:20;;;;;;;;;;;17.30;99.90;;;;;;12566079;28;19971;-34
2023/09/30 10:29:41;;;;;;;;;;;17.50;99.90;;;;;;12619458;28;20014;-35
2023/09/30 10:35:55;;;;;;;;;;;18.00;90.20;;;;;;12620357;28;19977;-35
2023/09/30 10:42:33;;;;;;;;;;;18.30;99.90;;;;;;12616433;28;19975;-35
2023/09/30 10:48:45;;;;;;;;;;;18.70;19.20;;;;;;12605403;28;19990;-35
2023/09/30 10:54:59;;;;;;;;;;;18.40;63.40;;;;;;12607826;28;20354;-35
2023/09/30 11:01:07;;;;;;;;;;;18.30;31.80;;;;;;12608445;28;19924;-35
2023/09/30 11:07:24;;;;;;;;;;;18.70;1.00;;;;;;12556555;28;20269;-35
2023/09/30 11:13:39;;;;;;;;;;;18.70;63.40;;;;;;12572777;28;20353;-35
2023/09/30 11:19:48;;;;;;;;;;;19.20;1.00;;;;;;12574508;28;19983;-35
2023/09/30 11:26:03;;;;;;;;;;;19.20;1.00;;;;;;12572735;28;19928;-35
2023/09/30 11:32:28;;;;;;;;;;;19.30;1.00;;;;;;12555435;28;19982;-35
2023/09/30 11:38:37;;;;;;;;;;;19.20;35.40;;;;;;12567413;28;19924;-35
2023/09/30 11:44:49;;;;;;;;;;;19.40;1.00;;;;;;12565889;28;19967;-35
2023/09/30 11:51:03;;;;;;;;;;;19.30;1.00;;;;;;12573518;28;20377;-35
2023/09/30 11:57:25;;;;;;;;;;;19.50;1.00;;;;;;12564415;28;19940;-35
2023/09/30 12:03:47;;;;;;;;;;;19.70;1.00;;;;;;12576939;28;19986;-35
2023/09/30 12:10:06;;;;;;;;;;;19.40;1.00;;;;;;12568058;28;19924;-35
2023/09/30 12:16:25;;;;;;;;;;;19.40;99.90;;;;;;12627579;28;20321;-35
2023/09/30 12:22:46;;;;;;;;;;;19.60;99.90;;;;;;12621214;28;19936;-35
2023/09/30 12:29:01;;;;;;;;;;;19.80;99.90;;;;;;12627289;28;19928;-36
2023/09/30 12:35:21;;;;;;;;;;;20.10;99.90;;;;;;12620992;28;19931;-35
2023/09/30 12:41:32;;;;;;;;;;;20.20;99.90;;;;;;12628602;28;19931;-35
2023/09/30 12:47:42;;;;;;;;;;;20.20;99.90;;;;;;12620943;28;19957;-35
2023/09/30 12:54:01;;;;;;;;;;;19.90;99.90;;;;;;12620333;28;19928;-35
2023/09/30 13:00:15;;;;;;;;;;;19.70;99.90;;;;;;12612105;28;19928;-35
2023/09/30 13:06:35;;;;;;;;;;;19.30;99.90;;;;;;12621385;28;20288;-34
2023/09/30 13:12:57;;;;;;;;;;;19.40;99.90;;;;;;12615856;28;19977;-34
2023/09/30 13:19:02;;;;;;;;;;;19.50;99.90;;;;;;12615687;28;20003;-34
2023/09/30 13:25:12;;;;;;;;;;;19.40;99.90;;;;;;12619258;28;19935;-34
2023/09/30 13:31:28;;;;;;;;;;;18.90;99.90;;;;;;12621151;28;20423;-34
2023/09/30 13:37:49;;;;;;;;;;;19.20;99.90;;;;;;12620399;28;19983;-35
2023/09/30 13:44:03;;;;;;;;;;;19.30;99.90;;;;;;12626024;28;19928;-34
2023/09/30 13:50:16;;;;;;;;;;;19.10;99.90;;;;;;12626159;28;19924;-35
2023/09/30 13:56:26;;;;;;;;;;;18.90;99.90;;;;;;12606154;28;20218;-35
2023/09/30 14:02:42;;;;;;;;;;;18.50;99.90;;;;;;12593757;28;20015;-34
2023/09/30 14:08:50;;;;;;;;;;;18.60;99.90;;;;;;12575068;28;19994;-34
2023/09/30 14:15:01;;;;;;;;;;;18.90;99.90;;;;;;12563922;28;19928;-34
2023/09/30 14:21:18;;;;;;;;;;;18.90;99.90;;;;;;12574002;28;19970;-34
2023/09/30 14:27:30;;;;;;;;;;;18.70;99.90;;;;;;12564208;28;19951;-34
2023/09/30 14:33:36;;;;;;;;;;;18.30;99.90;;;;;;12542702;28;19940;-34
2023/09/30 14:39:46;;;;;;;;;;;18.50;1.00;;;;;;12572991;28;19932;-34
2023/09/30 14:45:53;;;;;;;;;;;18.50;99.90;;;;;;12539411;28;19928;-34
2023/09/30 14:51:56;;;;;;;;;;;18.40;99.90;;;;;;12563404;28;20355;-34
2023/09/30 14:57:58;;;;;;;;;;;18.50;1.00;;;;;;12552033;28;19933;-34
2023/09/30 15:04:00;;;;;;;;;;;18.30;1.00;;;;;;12562593;28;19925;-34
2023/09/30 15:10:05;;;;;;;;;;;18.40;1.00;;;;;;12568060;28;19983;-34
2023/09/30 15:16:21;;;;;;;;;;;18.50;1.00;;;;;;12562507;28;19933;-34
2023/09/30 15:22:28;;;;;;;;;;;18.70;1.00;;;;;;12569428;28;19928;-34
2023/09/30 15:28:33;;;;;;;;;;;18.50;1.00;;;;;;12559089;28;20308;-34
2023/09/30 15:34:42;;;;;;;;;;;18.60;1.00;;;;;;12564022;28;20393;-34
2023/09/30 15:40:58;;;;;;;;;;;18.70;1.00;;;;;;12573823;28;20455;-34
2023/09/30 15:47:12;;;;;;;;;;;18.50;1.00;;;;;;12577390;28;19932;-35
2023/09/30 15:53:19;;;;;;;;;;;18.30;1.00;;;;;;12573944;28;19979;-34
2023/09/30 15:59:28;;;;;;;;;;;18.20;35.30;;;;;;12555477;28;20264;-34
2023/09/30 16:05:39;;;;;;;;;;;18.00;1.00;;;;;;12545403;28;19936;-35
2023/09/30 16:11:59;;;;;;;;;;;18.00;1.00;;;;;;12570586;28;19924;-35
2023/09/30 16:18:16;;;;;;;;;;;17.90;20.90;;;;;;12572463;28;19925;-34
2023/09/30 16:24:30;;;;;;;;;;;17.90;1.00;;;;;;12538515;28;19935;-34
2023/09/30 16:30:32;;;;;;;;;;;17.70;50.70;;;;;;12532257;28;19936;-33
2023/09/30 16:36:34;;;;;;;;;;;17.60;69.60;;;;;;12551667;28;20371;-34
2023/09/30 16:42:36;;;;;;;;;;;17.40;40.90;;;;;;12535407;28;19924;-34
2023/09/30 16:48:38;;;;;;;;;;;17.40;99.90;;;;;;12543510;28;19958;-34
2023/09/30 16:54:40;;;;;;;;;;;17.20;99.90;;;;;;12538651;28;19935;-34
2023/09/30 17:00:42;;;;;;;;;;;16.90;91.90;;;;;;12547364;28;21014;-34
2023/09/30 17:06:44;;;;;;;;;;;16.80;92.10;;;;;;12550096;28;19933;-34
2023/09/30 17:12:46;;;;;;;;;;;16.70;98.10;;;;;;12544034;28;19932;-34
2023/09/30 17:18:48;;;;;;;;;;;16.60;85.40;;;;;;12548807;28;19928;-34
2023/09/30 17:24:50;;;;;;;;;;;16.50;97.50;;;;;;12553260;28;20424;-34
2023/09/30 17:30:52;;;;;;;;;;;16.40;99.90;;;;;;12548654;28;19929;-34
2023/09/30 17:36:54;;;;;;;;;;;16.30;99.90;;;;;;12551834;28;20023;-34
2023/09/30 17:42:56;;;;;;;;;;;16.20;86.90;;;;;;12552772;28;20015;-34
2023/09/30 17:48:58;;;;;;;;;;;16.10;81.10;;;;;;12519243;28;19932;-34
2023/09/30 17:55:00;;;;;;;;;;;16.00;52.20;;;;;;12537228;28;20361;-34
2023/09/30 18:01:01;;;;;;;;;;;15.90;25.80;;;;;;12527675;28;19935;-34
2023/09/30 18:07:03;;;;;;;;;;;15.90;60.00;;;;;;12539062;28;19971;-34
2023/09/30 18:13:05;;;;;;;;;;;15.90;54.50;;;;;;12547580;28;20463;-34
2023/09/30 18:19:07;;;;;;;;;;;15.90;66.70;;;;;;12557463;28;19936;-34
2023/09/30 18:25:18;;;;;;;;;;;15.80;41.40;;;;;;12552818;28;19955;-34
2023/09/30 18:31:29;;;;;;;;;;;15.80;53.10;;;;;;12540441;28;19995;-34
2023/09/30 18:37:32;;;;;;;;;;;15.90;94.40;;;;;;12548246;28;20411;-33
2023/09/30 18:43:34;;;;;;;;;;;15.80;45.60;;;;;;12551316;28;19924;-34
2023/09/30 18:49:39;;;;;;;;;;;15.80;49.60;;;;;;12560363;28;20059;-34
2023/09/30 18:55:47;;;;;;;;;;;15.80;55.40;;;;;;12565528;28;19928;-34
2023/09/30 19:01:49;;;;;;;;;;;15.80;87.40;;;;;;12566856;28;19932;-34
2023/09/30 19:07:57;;;;;;;;;;;15.80;99.90;;;;;;12560969;28;19928;-34
2023/09/30 19:14:15;;;;;;;;;;;15.80;99.90;;;;;;12548327;28;20380;-34
2023/09/30 19:20:39;;;;;;;;;;;15.80;90.70;;;;;;12546554;28;19924;-34
2023/09/30 19:26:58;;;;;;;;;;;15.70;97.90;;;;;;12558273;28;19932;-34
2023/09/30 19:33:18;;;;;;;;;;;15.70;95.20;;;;;;12573016;28;19951;-34
2023/09/30 19:39:33;;;;;;;;;;;15.60;61.60;;;;;;12570081;28;20418;-34
2023/09/30 19:45:46;;;;;;;;;;;15.60;93.20;;;;;;12568924;28;19960;-34
2023/09/30 19:51:54;;;;;;;;;;;15.60;75.30;;;;;;12564556;28;19928;-34
2023/09/30 19:57:58;;;;;;;;;;;15.60;99.90;;;;;;12549131;28;20394;-34
2023/09/30 20:04:01;;;;;;;;;;;15.70;99.90;;;;;;12579639;28;20553;-34
2023/09/30 20:10:04;;;;;;;;;;;15.70;91.10;;;;;;12599343;28;20345;-34
2023/09/30 20:16:06;;;;;;;;;;;15.70;99.90;;;;;;12597365;28;20015;-34
2023/09/30 20:22:08;;;;;;;;;;;15.70;77.10;;;;;;12602937;28;20326;-34
2023/09/30 20:28:09;;;;;;;;;;;15.80;99.90;;;;;;12594877;28;19939;-34
2023/09/30 20:34:13;;;;;;;;;;;15.70;84.70;;;;;;12592110;28;19924;-34
2023/09/30 20:40:15;;;;;;;;;;;15.70;97.30;;;;;;12605629;28;20294;-34
2023/09/30 20:46:17;;;;;;;;;;;15.70;72.50;;;;;;12599057;28;20292;-34
2023/09/30 20:52:19;;;;;;;;;;;15.60;56.10;;;;;;12600043;28;19928;-34
2023/09/30 20:58:20;;;;;;;;;;;15.70;99.90;;;;;;12599033;28;19936;-34
2023/09/30 21:04:22;;;;;;;;;;;15.70;99.90;;;;;;12573598;28;19932;-34
2023/09/30 21:10:24;;;;;;;;;;;15.70;96.20;;;;;;12596051;28;19928;-34
2023/09/30 21:16:28;;;;;;;;;;;15.70;99.90;;;;;;12596124;28;19928;-34
2023/09/30 21:22:30;;;;;;;;;;;15.70;99.90;;;;;;12584294;28;19932;-34
2023/09/30 21:28:32;;;;;;;;;;;15.60;93.60;;;;;;12602587;28;20524;-33
2023/09/30 21:34:40;;;;;;;;;;;15.60;99.90;;;;;;12599518;28;20018;-34
2023/09/30 21:40:44;;;;;;;;;;;15.50;58.60;;;;;;12608700;28;20259;-34
2023/09/30 21:46:46;;;;;;;;;;;15.50;71.80;;;;;;12601686;28;19927;-33
2023/09/30 21:52:49;;;;;;;;;;;15.50;55.20;;;;;;12594850;28;19932;-33
2023/09/30 21:58:51;;;;;;;;;;;15.50;99.90;;;;;;12591823;28;19934;-33
2023/09/30 22:04:56;;;;;;;;;;;15.50;86.30;;;;;;12582259;28;19928;-34
2023/09/30 22:11:03;;;;;;;;;;;15.40;74.10;;;;;;12603044;28;20459;-34
2023/09/30 22:17:05;;;;;;;;;;;15.40;99.90;;;;;;12594008;28;20022;-34
2023/09/30 22:23:07;;;;;;;;;;;15.40;99.90;;;;;;12600575;28;19978;-34
2023/09/30 22:29:09;;;;;;;;;;;15.40;99.90;;;;;;12597171;28;20368;-34
2023/09/30 22:35:11;;;;;;;;;;;15.20;99.90;;;;;;12595247;28;19929;-34
2023/09/30 22:41:18;;;;;;;;;;;15.20;99.90;;;;;;12604490;28;19968;-34
2023/09/30 22:47:46;;;;;;;;;;;15.10;99.90;;;;;;12620837;28;20368;-33
2023/09/30 22:53:57;;;;;;;;;;;15.00;94.00;;;;;;12612089;28;20303;-34
2023/09/30 23:00:07;;;;;;;;;;;15.00;99.90;;;;;;12625241;28;19967;-34
2023/09/30 23:06:20;;;;;;;;;;;14.90;95.10;;;;;;12528519;28;19929;-34
2023/09/30 23:12:28;;;;;;;;;;;14.90;99.90;;;;;;12527263;28;20092;-33
2023/09/30 23:18:40;;;;;;;;;;;14.80;99.90;;;;;;12528951;28;20431;-33
2023/09/30 23:24:47;;;;;;;;;;;14.80;99.90;;;;;;12524088;28;20931;-34
2023/09/30 23:30:49;;;;;;;;;;;14.80;97.40;;;;;;12521106;28;19948;-33
2023/09/30 23:37:00;;;;;;;;;;;14.70;99.90;;;;;;12515414;28;20015;-34
2023/09/30 23:43:09;;;;;;;;;;;14.60;99.90;;;;;;12520905;28;19929;-33
2023/09/30 23:49:26;;;;;;;;;;;14.60;99.90;;;;;;12493901;28;19929;-34
2023/09/30 23:55:30;;;;;;;;;;;14.70;99.90;;;;;;12517424;28;19936;-34
